createdAt,value
2023-05-10T00:00:46.224Z,74.80
2023-05-10T00:03:13.473Z,74.73
2023-05-10T00:05:40.611Z,74.92
2023-05-10T00:08:08.246Z,74.89
2023-05-10T00:10:35.339Z,74.73
2023-05-10T00:13:02.799Z,74.44
2023-05-10T00:15:31.651Z,74.31
2023-05-10T00:17:59.556Z,74.24
2023-05-10T00:20:27.011Z,74.59
2023-05-10T00:22:53.947Z,74.31
2023-05-10T00:25:22.723Z,73.88
2023-05-10T00:27:50.943Z,74.09
2023-05-10T00:30:18.140Z,73.29
2023-05-10T00:32:45.782Z,73.14
2023-05-10T00:35:12.871Z,73.38
2023-05-10T00:37:40.243Z,73.11
2023-05-10T00:40:08.180Z,73.02
2023-05-10T00:42:35.236Z,73.21
2023-05-10T00:45:02.494Z,72.67
2023-05-10T00:47:30.899Z,72.93
2023-05-10T00:49:58.471Z,72.78
2023-05-10T00:52:27.115Z,72.79
2023-05-10T00:54:54.635Z,73.12
2023-05-10T00:57:22.376Z,72.94
2023-05-10T00:59:49.871Z,72.71
2023-05-10T01:02:16.952Z,72.95
2023-05-10T01:04:44.562Z,73.07
2023-05-10T01:07:11.706Z,73.19
2023-05-10T01:09:38.883Z,73.10
2023-05-10T01:12:08.030Z,73.30
2023-05-10T01:14:37.419Z,73.26
2023-05-10T01:17:07.375Z,73.65
2023-05-10T01:19:36.160Z,73.05
2023-05-10T01:22:15.070Z,73.99
2023-05-10T01:24:48.133Z,73.64
2023-05-10T01:27:37.103Z,74.15
2023-05-10T01:30:27.034Z,74.06
2023-05-10T01:33:19.294Z,74.36
2023-05-10T01:35:54.625Z,74.30
2023-05-10T01:38:48.057Z,73.63
2023-05-10T01:41:26.310Z,73.97
2023-05-10T01:44:23.271Z,74.24
2023-05-10T01:47:07.443Z,74.40
2023-05-10T01:49:41.291Z,73.20
2023-05-10T01:52:13.455Z,73.67
2023-05-10T01:54:46.380Z,73.35
2023-05-10T01:57:17.995Z,73.12
2023-05-10T01:59:51.276Z,73.12
2023-05-10T02:02:22.021Z,73.56
2023-05-10T02:04:51.972Z,72.84
2023-05-10T02:07:20.435Z,73.05
2023-05-10T02:09:52.147Z,72.86
2023-05-10T02:12:22.700Z,72.60
2023-05-10T02:14:52.524Z,72.85
2023-05-10T02:17:20.181Z,73.22
2023-05-10T02:19:49.993Z,73.19
2023-05-10T02:22:18.932Z,73.81
2023-05-10T02:24:48.410Z,74.29
2023-05-10T02:27:17.069Z,75.04
2023-05-10T02:29:45.886Z,76.27
2023-05-10T02:32:14.279Z,75.88
2023-05-10T02:34:42.449Z,76.21
2023-05-10T02:37:11.334Z,76.77
2023-05-10T02:39:41.711Z,76.33
2023-05-10T02:42:09.799Z,75.92
2023-05-10T02:44:38.552Z,75.72
2023-05-10T02:47:05.996Z,76.42
2023-05-10T02:49:33.070Z,76.48
2023-05-10T02:52:06.428Z,76.05
2023-05-10T02:54:45.058Z,76.73
2023-05-10T02:57:20.585Z,76.59
2023-05-10T02:59:47.694Z,76.56
2023-05-10T03:02:15.515Z,76.65
2023-05-10T03:04:42.778Z,76.30
2023-05-10T03:07:10.318Z,75.87
2023-05-10T03:09:37.607Z,76.28
2023-05-10T03:12:20.547Z,76.00
2023-05-10T03:14:54.569Z,75.82
2023-05-10T03:17:37.860Z,75.84
2023-05-10T03:20:11.149Z,75.29
2023-05-10T03:22:42.199Z,75.33
2023-05-10T03:25:12.197Z,74.60
2023-05-10T03:27:43.336Z,74.52
2023-05-10T03:30:13.225Z,74.31
2023-05-10T03:32:41.285Z,73.26
2023-05-10T03:35:14.369Z,72.83
2023-05-10T03:37:42.458Z,72.33
2023-05-10T03:40:11.373Z,71.48
2023-05-10T03:42:41.371Z,70.73
2023-05-10T03:45:10.044Z,70.42
2023-05-10T03:47:37.280Z,69.77
2023-05-10T03:50:05.495Z,69.33
2023-05-10T03:52:33.562Z,67.47
2023-05-10T03:55:01.257Z,66.32
2023-05-10T03:57:28.680Z,65.65
2023-05-10T03:59:56.109Z,65.53
2023-05-10T04:02:24.214Z,65.09
2023-05-10T04:04:52.172Z,64.73
2023-05-10T04:07:19.504Z,63.50
2023-05-10T04:09:46.850Z,63.51
2023-05-10T04:12:14.212Z,63.33
2023-05-10T04:14:42.363Z,62.63
2023-05-10T04:17:09.889Z,62.40
2023-05-10T04:19:36.886Z,61.63
2023-05-10T04:22:04.381Z,60.61
2023-05-10T04:24:31.277Z,59.17
2023-05-10T04:26:58.477Z,57.83
2023-05-10T04:29:25.893Z,56.17
2023-05-10T04:31:53.234Z,54.38
2023-05-10T04:34:22.243Z,52.55
2023-05-10T04:36:49.466Z,51.42
2023-05-10T04:39:16.740Z,50.64
2023-05-10T04:41:43.932Z,49.24
2023-05-10T04:44:11.120Z,45.86
2023-05-10T04:46:38.524Z,43.21
2023-05-10T04:49:05.660Z,42.01
2023-05-10T04:51:33.397Z,42.45
2023-05-10T04:54:06.547Z,40.53
2023-05-10T04:56:34.634Z,37.70
2023-05-10T04:59:02.287Z,36.89
2023-05-10T05:01:29.467Z,36.58
2023-05-10T05:03:57.403Z,36.00
2023-05-10T05:06:25.992Z,35.79
2023-05-10T05:08:53.161Z,35.71
2023-05-10T05:11:20.596Z,35.93
2023-05-10T05:13:48.079Z,34.99
2023-05-10T05:16:15.604Z,32.97
2023-05-10T05:18:42.721Z,32.28
2023-05-10T05:21:20.890Z,30.50
2023-05-10T05:23:48.306Z,31.44
2023-05-10T05:26:16.143Z,32.48
2023-05-10T05:28:43.802Z,32.27
2023-05-10T05:31:11.237Z,32.24
2023-05-10T05:33:39.610Z,31.41
2023-05-10T05:36:07.558Z,34.07
2023-05-10T05:38:34.838Z,33.45
2023-05-10T05:41:02.047Z,34.39
2023-05-10T05:43:29.306Z,34.90
2023-05-10T05:46:15.742Z,33.75
2023-05-10T05:48:43.102Z,32.50
2023-05-10T05:51:10.708Z,30.71
2023-05-10T05:53:37.806Z,29.32
2023-05-10T05:56:05.128Z,28.08
2023-05-10T05:58:32.644Z,26.20
2023-05-10T06:00:59.908Z,24.86
2023-05-10T06:03:27.197Z,24.16
2023-05-10T06:05:54.258Z,23.30
2023-05-10T06:08:21.799Z,23.57
2023-05-10T06:10:49.133Z,23.07
2023-05-10T06:13:16.901Z,22.56
2023-05-10T06:15:44.213Z,23.00
2023-05-10T06:18:11.706Z,23.12
2023-05-10T06:20:38.943Z,24.14
2023-05-10T06:23:06.374Z,24.38
2023-05-10T06:25:33.963Z,24.16
2023-05-10T06:28:01.934Z,24.34
2023-05-10T06:30:30.358Z,25.29
2023-05-10T06:32:58.333Z,25.14
2023-05-10T06:35:25.805Z,24.06
2023-05-10T06:37:53.524Z,23.25
2023-05-10T06:40:21.121Z,23.49
2023-05-10T06:42:49.208Z,23.11
2023-05-10T06:45:17.180Z,22.52
2023-05-10T06:47:45.569Z,22.75
2023-05-10T06:50:13.884Z,22.14
2023-05-10T06:52:44.046Z,21.89
2023-05-10T06:55:13.378Z,22.92
2023-05-10T06:57:42.038Z,22.44
2023-05-10T07:00:11.164Z,22.99
2023-05-10T07:02:39.486Z,22.01
2023-05-10T07:05:07.731Z,22.25
2023-05-10T07:07:35.255Z,23.02
2023-05-10T07:10:04.251Z,23.55
2023-05-10T07:12:32.961Z,22.79
2023-05-10T07:15:02.501Z,21.99
2023-05-10T07:17:30.213Z,21.69
2023-05-10T07:19:57.406Z,20.47
2023-05-10T07:22:25.143Z,20.63
2023-05-10T07:24:53.873Z,20.81
2023-05-10T07:27:21.608Z,19.76
2023-05-10T07:29:48.905Z,19.18
2023-05-10T07:32:16.344Z,20.31
2023-05-10T07:34:43.768Z,20.96
2023-05-10T07:37:11.451Z,21.95
2023-05-10T07:39:39.064Z,23.37
2023-05-10T07:42:06.840Z,21.17
2023-05-10T07:44:34.214Z,20.72
2023-05-10T07:47:04.881Z,20.56
2023-05-10T07:49:32.407Z,21.16
2023-05-10T07:51:59.913Z,21.85
2023-05-10T07:54:30.198Z,22.59
2023-05-10T07:56:57.219Z,23.03
2023-05-10T07:59:24.448Z,23.65
2023-05-10T08:01:51.808Z,24.19
2023-05-10T08:04:19.065Z,23.95
2023-05-10T08:06:47.850Z,22.48
2023-05-10T08:09:15.071Z,23.57
2023-05-10T08:11:43.288Z,21.95
2023-05-10T08:14:10.970Z,22.22
2023-05-10T08:16:38.357Z,20.02
2023-05-10T08:19:06.770Z,18.47
2023-05-10T08:21:34.428Z,17.45
2023-05-10T08:24:01.634Z,16.42
2023-05-10T08:26:29.265Z,16.56
2023-05-10T08:28:56.644Z,17.03
2023-05-10T08:31:26.128Z,18.09
2023-05-10T08:33:55.447Z,18.71
2023-05-10T08:36:26.126Z,19.63
2023-05-10T08:38:55.765Z,20.92
2023-05-10T08:41:29.012Z,21.77
2023-05-10T08:43:57.069Z,22.52
2023-05-10T08:46:24.887Z,23.44
2023-05-10T08:48:53.709Z,24.04
2023-05-10T08:51:28.499Z,24.64
2023-05-10T08:53:59.253Z,25.18
2023-05-10T08:56:28.595Z,25.45
2023-05-10T08:58:57.914Z,25.83
2023-05-10T09:01:27.288Z,26.75
2023-05-10T09:03:55.215Z,26.64
2023-05-10T09:06:23.075Z,26.92
2023-05-10T09:08:51.463Z,26.79
2023-05-10T09:11:19.902Z,26.25
2023-05-10T09:13:50.273Z,26.69
2023-05-10T09:16:21.966Z,26.07
2023-05-10T09:18:51.098Z,26.58
2023-05-10T09:21:20.896Z,26.66
2023-05-10T09:23:51.470Z,25.78
2023-05-10T09:26:23.478Z,25.65
2023-05-10T09:28:57.216Z,25.36
2023-05-10T09:31:27.244Z,25.18
2023-05-10T09:33:56.537Z,25.60
2023-05-10T09:36:25.576Z,25.90
2023-05-10T09:38:55.565Z,25.87
2023-05-10T09:41:25.078Z,25.58
2023-05-10T09:43:57.810Z,25.93
2023-05-10T09:46:25.675Z,25.74
2023-05-10T09:48:54.018Z,25.59
2023-05-10T09:51:26.083Z,26.01
2023-05-10T09:54:17.972Z,26.07
2023-05-10T09:56:45.371Z,25.40
2023-05-10T09:59:14.992Z,25.80
2023-05-10T10:01:43.143Z,25.30
2023-05-10T10:04:11.474Z,25.69
2023-05-10T10:06:42.335Z,25.21
2023-05-10T10:09:14.128Z,26.00
2023-05-10T10:11:44.004Z,24.36
2023-05-10T10:14:14.766Z,24.42
2023-05-10T10:16:55.542Z,23.12
2023-05-10T10:19:32.696Z,20.22
2023-05-10T10:22:00.465Z,20.29
2023-05-10T10:24:28.996Z,21.03
2023-05-10T10:27:05.549Z,20.69
2023-05-10T10:30:11.146Z,20.60
2023-05-10T10:32:58.987Z,21.27
2023-05-10T10:35:26.757Z,22.02
2023-05-10T10:37:56.997Z,22.55
2023-05-10T10:43:47.344Z,23.21
2023-05-10T10:46:19.041Z,23.73
2023-05-10T10:48:55.334Z,24.16
2023-05-10T10:51:26.383Z,24.16
2023-05-10T10:53:55.148Z,24.82
2023-05-10T10:56:27.054Z,24.40
2023-05-10T10:58:54.970Z,24.30
2023-05-10T11:01:26.077Z,24.45
2023-05-10T11:04:02.433Z,24.32
2023-05-10T11:06:34.655Z,23.37
2023-05-10T11:09:10.669Z,23.36
2023-05-10T11:11:49.361Z,23.39
2023-05-10T11:14:22.458Z,22.14
2023-05-10T11:16:57.671Z,21.94
2023-05-10T11:19:29.193Z,21.02
2023-05-10T11:22:04.862Z,21.20
2023-05-10T11:24:32.080Z,21.33
2023-05-10T11:26:59.660Z,21.27
2023-05-10T11:29:29.113Z,20.99
2023-05-10T11:32:00.921Z,20.83
2023-05-10T11:34:34.886Z,20.23
2023-05-10T11:37:04.403Z,19.77
2023-05-10T11:39:37.078Z,20.34
2023-05-10T11:42:04.858Z,20.44
2023-05-10T11:44:33.066Z,20.29
2023-05-10T11:47:01.814Z,19.37
2023-05-10T11:49:31.882Z,19.59
2023-05-10T11:52:10.227Z,18.83
2023-05-10T11:54:42.377Z,18.92
2023-05-10T11:57:10.021Z,18.96
2023-05-10T11:59:43.195Z,18.94
2023-05-10T12:02:12.544Z,18.65
2023-05-10T12:04:41.692Z,18.52
2023-05-10T12:07:13.943Z,18.81
2023-05-10T12:10:06.718Z,18.89
2023-05-10T12:12:45.194Z,18.20
2023-05-10T12:15:23.512Z,18.95
2023-05-10T12:17:51.887Z,18.70
2023-05-10T12:20:26.443Z,17.55
2023-05-10T12:23:06.153Z,17.73
2023-05-10T12:25:35.743Z,17.64
2023-05-10T12:28:10.749Z,17.72
2023-05-10T12:30:38.801Z,17.23
2023-05-10T12:33:11.876Z,17.53
2023-05-10T12:36:02.859Z,16.79
2023-05-10T12:38:47.409Z,16.73
2023-05-10T12:41:17.271Z,16.78
2023-05-10T12:44:10.950Z,15.83
2023-05-10T12:46:38.368Z,16.78
2023-05-10T12:49:09.330Z,16.18
2023-05-10T12:51:36.566Z,16.06
2023-05-10T12:54:04.649Z,15.61
2023-05-10T12:56:31.691Z,15.30
2023-05-10T12:59:01.209Z,15.50
2023-05-10T13:01:33.883Z,14.38
2023-05-10T13:04:01.874Z,14.28
2023-05-10T13:06:29.641Z,14.25
2023-05-10T13:08:56.677Z,14.16
2023-05-10T13:11:23.612Z,13.96
2023-05-10T13:13:50.688Z,13.93
2023-05-10T13:16:17.751Z,14.42
2023-05-10T13:18:44.653Z,14.58
2023-05-10T13:21:12.408Z,15.62
2023-05-10T13:23:39.601Z,16.32
2023-05-10T13:26:06.504Z,16.84
2023-05-10T13:28:33.411Z,17.30
2023-05-10T13:31:01.256Z,17.88
2023-05-10T13:33:28.239Z,18.19
2023-05-10T13:35:55.830Z,18.86
2023-05-10T13:38:22.921Z,19.87
2023-05-10T13:40:53.592Z,19.74
2023-05-10T13:43:21.148Z,20.24
2023-05-10T13:45:50.267Z,20.58
2023-05-10T13:48:17.238Z,21.04
2023-05-10T13:50:44.600Z,20.98
2023-05-10T13:53:11.654Z,21.70
2023-05-10T13:55:39.411Z,21.78
2023-05-10T13:58:09.194Z,21.89
2023-05-10T14:00:36.638Z,21.75
2023-05-10T14:03:07.853Z,22.06
2023-05-10T14:05:35.696Z,22.13
2023-05-10T14:08:06.309Z,22.16
2023-05-10T14:10:33.425Z,22.13
2023-05-10T14:13:00.546Z,22.34
2023-05-10T14:15:27.521Z,22.36
2023-05-10T14:17:54.507Z,22.57
2023-05-10T14:20:21.557Z,22.94
2023-05-10T14:22:48.504Z,23.61
2023-05-10T14:25:16.090Z,23.58
2023-05-10T14:27:43.982Z,23.82
2023-05-10T14:30:12.379Z,23.71
2023-05-10T14:32:39.473Z,23.77
2023-05-10T14:35:07.390Z,24.11
2023-05-10T14:37:34.451Z,24.23
2023-05-10T14:40:01.553Z,24.16
2023-05-10T14:42:29.559Z,24.63
2023-05-10T14:44:56.390Z,24.74
2023-05-10T14:47:23.186Z,24.81
2023-05-10T14:49:50.001Z,24.47
2023-05-10T14:52:17.046Z,24.75
2023-05-10T14:54:46.967Z,24.79
2023-05-10T14:57:14.223Z,24.56
2023-05-10T14:59:41.363Z,24.79
2023-05-10T15:02:19.400Z,24.10
2023-05-10T15:04:48.370Z,23.95
2023-05-10T15:07:17.444Z,24.14
2023-05-10T15:09:47.571Z,24.55
2023-05-10T15:12:14.554Z,25.11
2023-05-10T15:14:41.478Z,25.07
2023-05-10T15:17:08.876Z,26.13
2023-05-10T15:19:36.022Z,25.98
2023-05-10T15:22:06.307Z,26.18
2023-05-10T15:24:33.505Z,26.80
2023-05-10T15:27:01.859Z,27.18
2023-05-10T15:29:28.884Z,27.29
2023-05-10T15:31:58.275Z,27.76
2023-05-10T15:34:29.720Z,28.32
2023-05-10T15:36:57.803Z,29.02
2023-05-10T15:39:27.709Z,29.71
2023-05-10T15:42:00.363Z,29.84
2023-05-10T15:44:32.552Z,30.05
2023-05-10T15:47:01.527Z,30.82
2023-05-10T15:49:34.663Z,30.41
2023-05-10T15:52:04.451Z,31.40
2023-05-10T15:54:35.144Z,31.54
2023-05-10T15:57:02.422Z,31.96
2023-05-10T15:59:31.783Z,32.37
2023-05-10T16:01:59.450Z,33.08
2023-05-10T16:04:31.767Z,33.39
2023-05-10T16:07:01.789Z,32.81
2023-05-10T16:09:32.596Z,33.02
2023-05-10T16:12:01.912Z,34.65
2023-05-10T16:14:35.193Z,34.42
2023-05-10T16:17:15.493Z,34.89
2023-05-10T16:19:47.515Z,34.81
2023-05-10T16:22:28.382Z,35.31
2023-05-10T16:24:58.193Z,35.38
2023-05-10T16:27:32.878Z,36.06
2023-05-10T16:33:02.995Z,36.09
2023-05-10T16:35:35.902Z,36.00
2023-05-10T16:38:07.014Z,36.35
2023-05-10T16:40:37.519Z,36.57
2023-05-10T16:43:11.549Z,36.72
2023-05-10T16:45:40.598Z,37.23
2023-05-10T16:48:47.812Z,37.51
2023-05-10T16:51:27.275Z,37.77
2023-05-10T16:56:41.277Z,38.81
2023-05-10T16:59:09.286Z,38.31
2023-05-10T17:01:42.766Z,38.64
2023-05-10T17:04:10.594Z,38.76
2023-05-10T17:06:42.292Z,38.90
2023-05-10T17:09:09.962Z,39.63
2023-05-10T17:11:44.007Z,39.58
2023-05-10T17:14:17.253Z,39.59
2023-05-10T17:16:45.109Z,39.81
2023-05-10T17:19:19.536Z,40.30
2023-05-10T17:21:47.196Z,40.53
2023-05-10T17:24:15.854Z,40.97
2023-05-10T17:26:49.918Z,41.03
2023-05-10T17:29:18.177Z,41.68
2023-05-10T17:31:47.403Z,42.04
2023-05-10T17:34:18.372Z,42.29
2023-05-10T17:36:52.473Z,42.93
2023-05-10T17:39:19.973Z,43.18
2023-05-10T17:41:50.280Z,43.15
2023-05-10T17:44:18.538Z,43.37
2023-05-10T17:46:48.617Z,43.01
2023-05-10T17:49:17.215Z,43.79
2023-05-10T17:51:47.292Z,43.69
2023-05-10T17:54:20.263Z,43.85
2023-05-10T17:56:51.693Z,43.86
2023-05-10T17:59:22.202Z,43.64
2023-05-10T18:01:51.045Z,43.44
2023-05-10T18:04:21.112Z,43.58
2023-05-10T18:06:49.597Z,43.95
2023-05-10T18:09:18.165Z,43.85
2023-05-10T18:11:47.963Z,44.08
2023-05-10T18:14:32.021Z,44.42
2023-05-10T18:17:06.394Z,44.46
2023-05-10T18:19:37.319Z,44.68
2023-05-10T18:22:08.100Z,44.83
2023-05-10T18:24:39.542Z,45.99
2023-05-10T18:27:10.187Z,45.28
2023-05-10T18:29:45.733Z,45.48
2023-05-10T18:32:26.408Z,45.79
2023-05-10T18:35:27.519Z,46.11
2023-05-10T18:38:00.831Z,46.35
2023-05-10T18:40:31.121Z,47.17
2023-05-10T18:42:58.660Z,47.41
2023-05-10T18:45:28.384Z,47.61
2023-05-10T18:47:56.623Z,47.59
2023-05-10T18:50:29.708Z,48.38
2023-05-10T18:52:57.899Z,48.58
2023-05-10T18:55:28.700Z,49.18
2023-05-10T18:57:56.497Z,49.40
2023-05-10T19:01:16.454Z,49.90
2023-05-10T19:07:05.183Z,50.44
2023-05-10T19:09:38.516Z,52.09
2023-05-10T19:12:16.778Z,51.54
2023-05-10T19:14:43.901Z,53.74
2023-05-10T19:17:18.976Z,51.91
2023-05-10T19:19:54.092Z,52.12
2023-05-10T19:22:36.046Z,53.36
2023-05-10T19:25:14.815Z,54.00
2023-05-10T19:27:43.339Z,55.03
2023-05-10T19:30:14.629Z,55.62
2023-05-10T19:32:44.427Z,55.95
2023-05-10T19:35:13.754Z,56.69
2023-05-10T19:37:46.100Z,57.22
2023-05-10T19:40:27.328Z,58.47
2023-05-10T19:43:28.070Z,59.40
2023-05-10T19:46:19.447Z,60.97
2023-05-10T19:49:00.518Z,60.69
2023-05-10T19:51:37.269Z,61.77
2023-05-10T19:54:24.346Z,62.73
2023-05-10T19:56:53.868Z,63.92
2023-05-10T19:59:23.632Z,64.88
2023-05-10T20:02:01.557Z,65.46
2023-05-10T20:04:29.428Z,65.89
2023-05-10T20:06:56.652Z,65.51
2023-05-10T20:09:24.453Z,65.43
2023-05-10T20:11:53.404Z,65.67
2023-05-10T20:14:24.460Z,66.37
2023-05-10T20:16:58.089Z,67.01
2023-05-10T20:19:29.173Z,67.13
2023-05-10T20:21:58.898Z,68.39
2023-05-10T20:24:32.386Z,68.74
2023-05-10T20:27:03.527Z,69.30
2023-05-10T20:29:34.478Z,69.46
2023-05-10T20:32:02.646Z,69.63
2023-05-10T20:34:31.290Z,69.87
2023-05-10T20:37:00.399Z,69.72
2023-05-10T20:39:28.214Z,69.20
2023-05-10T20:41:56.914Z,69.29
2023-05-10T20:44:24.542Z,69.76
2023-05-10T20:46:56.334Z,70.76
2023-05-10T20:49:33.243Z,70.66
2023-05-10T20:52:01.386Z,71.38
2023-05-10T20:54:39.789Z,71.13
2023-05-10T20:57:09.032Z,70.82
2023-05-10T20:59:37.923Z,71.44
2023-05-10T21:02:06.085Z,71.48
2023-05-10T21:04:41.063Z,71.92
2023-05-10T21:07:14.538Z,73.29
2023-05-10T21:09:44.492Z,73.57
2023-05-10T21:12:14.924Z,74.32
2023-05-10T21:14:48.080Z,74.13
2023-05-10T21:17:16.951Z,74.37
2023-05-10T21:19:45.954Z,74.48
2023-05-10T21:22:13.955Z,74.68
2023-05-10T21:24:41.906Z,74.81
2023-05-10T21:27:09.949Z,75.02
2023-05-10T21:29:40.833Z,75.33
2023-05-10T21:36:05.958Z,75.30
2023-05-10T21:38:53.235Z,75.70
2023-05-10T21:41:21.394Z,76.09
2023-05-10T21:43:49.461Z,76.95
2023-05-10T21:46:16.784Z,77.03
2023-05-10T21:48:44.429Z,76.88
2023-05-10T21:51:12.697Z,77.37
2023-05-10T21:53:41.177Z,77.62
2023-05-10T21:56:13.100Z,76.75
2023-05-10T21:58:45.392Z,76.39
2023-05-10T22:01:18.191Z,79.43
2023-05-10T22:03:55.597Z,78.50
2023-05-10T22:06:26.128Z,78.47
2023-05-10T22:08:54.432Z,78.90
2023-05-10T22:11:26.458Z,78.96
2023-05-10T22:13:54.668Z,79.26
2023-05-10T22:16:22.406Z,79.44
2023-05-10T22:18:50.094Z,79.82
2023-05-10T22:21:20.453Z,78.59
2023-05-10T22:23:48.441Z,78.64
2023-05-10T22:26:56.532Z,79.57
2023-05-10T22:29:44.780Z,79.86
2023-05-10T22:32:27.304Z,80.04
2023-05-10T22:34:56.522Z,80.49
2023-05-10T22:37:25.462Z,81.11
2023-05-10T22:39:57.799Z,81.38
2023-05-10T22:42:25.596Z,81.14
2023-05-10T22:44:56.956Z,81.63
2023-05-10T22:47:24.433Z,81.41
2023-05-10T22:49:56.434Z,81.29
2023-05-10T22:52:24.042Z,81.60
2023-05-10T22:54:51.497Z,82.39
2023-05-10T22:57:25.452Z,83.20
2023-05-10T22:59:56.600Z,82.67
2023-05-10T23:02:24.374Z,82.65
2023-05-10T23:04:53.212Z,82.79
2023-05-10T23:07:25.141Z,82.47
2023-05-10T23:09:54.071Z,82.51
2023-05-10T23:12:21.827Z,82.19
2023-05-10T23:14:52.010Z,82.48
2023-05-10T23:17:22.976Z,81.95
2023-05-10T23:19:51.351Z,81.73
2023-05-10T23:22:19.804Z,81.97
2023-05-10T23:24:47.623Z,81.23
2023-05-10T23:27:20.105Z,81.58
2023-05-10T23:29:48.859Z,82.07
2023-05-10T23:32:25.379Z,81.50
2023-05-10T23:34:53.637Z,81.98
2023-05-10T23:37:21.893Z,81.99
2023-05-10T23:39:49.641Z,82.48
2023-05-10T23:42:17.220Z,82.05
2023-05-10T23:44:45.289Z,82.31
2023-05-10T23:47:15.352Z,82.16
2023-05-10T23:49:43.335Z,82.09
2023-05-10T23:52:13.862Z,81.96
2023-05-10T23:54:40.938Z,81.92
2023-05-10T23:57:07.931Z,82.25
2023-05-10T23:59:34.775Z,82.33
